sensor_id;sensor_type;location;lat;lon;timestamp;temperature;humidity
22986;DHT22;11659;51.092;7.080;2022-10-26T00:01:33;12.60;99.90
22986;DHT22;11659;51.092;7.080;2022-10-26T00:03:58;12.60;99.90
22986;DHT22;11659;51.092;7.080;2022-10-26T00:06:25;12.60;99.90
22986;DHT22;11659;51.092;7.080;2022-10-26T00:08:52;12.60;99.90
22986;DHT22;11659;51.092;7.080;2022-10-26T00:11:22;12.60;99.90
22986;DHT22;11659;51.092;7.080;2022-10-26T00:13:47;12.60;99.90
22986;DHT22;11659;51.092;7.080;2022-10-26T00:16:16;12.60;99.90
22986;DHT22;11659;51.092;7.080;2022-10-26T00:18:43;12.60;99.90
22986;DHT22;11659;51.092;7.080;2022-10-26T00:21:10;12.60;99.90
22986;DHT22;11659;51.092;7.080;2022-10-26T00:23:36;12.60;99.90
22986;DHT22;11659;51.092;7.080;2022-10-26T00:26:03;12.60;99.90
22986;DHT22;11659;51.092;7.080;2022-10-26T00:28:30;12.60;99.90
22986;DHT22;11659;51.092;7.080;2022-10-26T00:31:00;12.60;99.90
22986;DHT22;11659;51.092;7.080;2022-10-26T00:33:26;12.60;99.90
22986;DHT22;11659;51.092;7.080;2022-10-26T00:35:52;12.60;99.90
22986;DHT22;11659;51.092;7.080;2022-10-26T00:38:19;12.60;99.90
22986;DHT22;11659;51.092;7.080;2022-10-26T00:40:45;12.60;99.90
22986;DHT22;11659;51.092;7.080;2022-10-26T00:45:58;12.60;99.90
22986;DHT22;11659;51.092;7.080;2022-10-26T00:48:27;12.60;99.90
22986;DHT22;11659;51.092;7.080;2022-10-26T00:50:56;13.80;99.90
22986;DHT22;11659;51.092;7.080;2022-10-26T00:53:23;12.60;99.90
22986;DHT22;11659;51.092;7.080;2022-10-26T00:55:51;12.60;99.90
22986;DHT22;11659;51.092;7.080;2022-10-26T00:58:17;12.60;99.90
22986;DHT22;11659;51.092;7.080;2022-10-26T01:00:45;12.50;99.90
22986;DHT22;11659;51.092;7.080;2022-10-26T01:03:15;12.50;99.90
22986;DHT22;11659;51.092;7.080;2022-10-26T01:05:43;12.50;99.90
22986;DHT22;11659;51.092;7.080;2022-10-26T01:08:10;12.60;99.90
22986;DHT22;11659;51.092;7.080;2022-10-26T01:10:38;12.60;99.90
22986;DHT22;11659;51.092;7.080;2022-10-26T01:13:05;12.60;99.90
22986;DHT22;11659;51.092;7.080;2022-10-26T01:15:37;12.60;99.90
22986;DHT22;11659;51.092;7.080;2022-10-26T01:18:11;12.60;99.90
22986;DHT22;11659;51.092;7.080;2022-10-26T01:23:33;12.70;99.90
22986;DHT22;11659;51.092;7.080;2022-10-26T01:26:13;12.70;99.90
22986;DHT22;11659;51.092;7.080;2022-10-26T01:29:03;12.70;99.90
22986;DHT22;11659;51.092;7.080;2022-10-26T01:31:41;12.70;99.90
22986;DHT22;11659;51.092;7.080;2022-10-26T01:34:11;12.70;99.90
22986;DHT22;11659;51.092;7.080;2022-10-26T01:36:41;12.60;99.90
22986;DHT22;11659;51.092;7.080;2022-10-26T01:39:13;12.80;99.90
22986;DHT22;11659;51.092;7.080;2022-10-26T01:41:45;12.70;99.90
22986;DHT22;11659;51.092;7.080;2022-10-26T01:44:15;12.70;99.90
22986;DHT22;11659;51.092;7.080;2022-10-26T01:46:46;12.70;99.90
22986;DHT22;11659;51.092;7.080;2022-10-26T01:49:14;12.80;99.90
22986;DHT22;11659;51.092;7.080;2022-10-26T01:51:43;12.70;99.90
22986;DHT22;11659;51.092;7.080;2022-10-26T01:54:10;12.80;99.90
22986;DHT22;11659;51.092;7.080;2022-10-26T01:56:38;12.80;99.90
22986;DHT22;11659;51.092;7.080;2022-10-26T01:59:21;12.80;99.90
22986;DHT22;11659;51.092;7.080;2022-10-26T02:02:24;12.80;99.90
22986;DHT22;11659;51.092;7.080;2022-10-26T02:05:13;12.90;99.90
22986;DHT22;11659;51.092;7.080;2022-10-26T02:07:49;13.10;99.90
22986;DHT22;11659;51.092;7.080;2022-10-26T02:10:25;12.90;99.90
22986;DHT22;11659;51.092;7.080;2022-10-26T02:12:57;13.00;99.90
22986;DHT22;11659;51.092;7.080;2022-10-26T02:15:34;13.00;99.90
22986;DHT22;11659;51.092;7.080;2022-10-26T02:18:09;13.10;99.90
22986;DHT22;11659;51.092;7.080;2022-10-26T02:20:41;13.10;99.90
22986;DHT22;11659;51.092;7.080;2022-10-26T02:23:08;13.10;99.90
22986;DHT22;11659;51.092;7.080;2022-10-26T02:25:41;13.20;99.90
22986;DHT22;11659;51.092;7.080;2022-10-26T02:28:12;13.20;99.90
22986;DHT22;11659;51.092;7.080;2022-10-26T02:30:39;13.20;99.90
22986;DHT22;11659;51.092;7.080;2022-10-26T02:33:09;13.20;99.90
22986;DHT22;11659;51.092;7.080;2022-10-26T02:35:37;13.20;99.90
22986;DHT22;11659;51.092;7.080;2022-10-26T02:38:07;13.20;99.90
22986;DHT22;11659;51.092;7.080;2022-10-26T02:40:35;13.30;99.90
22986;DHT22;11659;51.092;7.080;2022-10-26T02:43:04;13.30;99.90
22986;DHT22;11659;51.092;7.080;2022-10-26T02:45:33;13.30;99.90
22986;DHT22;11659;51.092;7.080;2022-10-26T02:48:02;13.40;99.90
22986;DHT22;11659;51.092;7.080;2022-10-26T02:50:38;13.40;99.90
22986;DHT22;11659;51.092;7.080;2022-10-26T02:53:11;13.40;99.90
22986;DHT22;11659;51.092;7.080;2022-10-26T02:55:45;13.50;99.90
22986;DHT22;11659;51.092;7.080;2022-10-26T02:58:17;13.60;99.90
22986;DHT22;11659;51.092;7.080;2022-10-26T03:00:45;13.60;99.90
22986;DHT22;11659;51.092;7.080;2022-10-26T03:03:11;13.60;99.90
22986;DHT22;11659;51.092;7.080;2022-10-26T03:05:42;13.60;99.90
22986;DHT22;11659;51.092;7.080;2022-10-26T03:08:08;13.60;99.90
22986;DHT22;11659;51.092;7.080;2022-10-26T03:10:39;13.70;99.90
22986;DHT22;11659;51.092;7.080;2022-10-26T03:13:05;13.70;99.90
22986;DHT22;11659;51.092;7.080;2022-10-26T03:15:31;14.20;99.90
22986;DHT22;11659;51.092;7.080;2022-10-26T03:17:56;13.80;99.90
22986;DHT22;11659;51.092;7.080;2022-10-26T03:20:22;13.90;99.90
22986;DHT22;11659;51.092;7.080;2022-10-26T03:22:50;13.80;99.90
22986;DHT22;11659;51.092;7.080;2022-10-26T03:25:16;13.80;99.90
22986;DHT22;11659;51.092;7.080;2022-10-26T03:27:42;13.80;99.90
22986;DHT22;11659;51.092;7.080;2022-10-26T03:30:08;13.90;99.90
22986;DHT22;11659;51.092;7.080;2022-10-26T03:32:35;13.90;99.90
22986;DHT22;11659;51.092;7.080;2022-10-26T03:35:01;13.90;99.90
22986;DHT22;11659;51.092;7.080;2022-10-26T03:37:27;13.90;99.90
22986;DHT22;11659;51.092;7.080;2022-10-26T03:39:55;13.90;99.90
22986;DHT22;11659;51.092;7.080;2022-10-26T03:42:21;13.90;99.90
22986;DHT22;11659;51.092;7.080;2022-10-26T03:44:47;13.90;99.90
22986;DHT22;11659;51.092;7.080;2022-10-26T03:47:13;13.90;99.90
22986;DHT22;11659;51.092;7.080;2022-10-26T03:49:38;13.90;99.90
22986;DHT22;11659;51.092;7.080;2022-10-26T03:52:04;14.00;99.90
22986;DHT22;11659;51.092;7.080;2022-10-26T03:54:30;14.00;99.90
22986;DHT22;11659;51.092;7.080;2022-10-26T03:56:58;14.00;99.90
22986;DHT22;11659;51.092;7.080;2022-10-26T03:59:23;14.00;99.90
22986;DHT22;11659;51.092;7.080;2022-10-26T04:01:49;14.00;99.90
22986;DHT22;11659;51.092;7.080;2022-10-26T04:04:15;14.00;99.90
22986;DHT22;11659;51.092;7.080;2022-10-26T04:06:41;14.10;99.90
22986;DHT22;11659;51.092;7.080;2022-10-26T04:09:07;14.10;99.90
22986;DHT22;11659;51.092;7.080;2022-10-26T04:11:33;14.00;99.90
22986;DHT22;11659;51.092;7.080;2022-10-26T04:14:01;14.10;99.90
22986;DHT22;11659;51.092;7.080;2022-10-26T04:16:26;14.00;99.90
22986;DHT22;11659;51.092;7.080;2022-10-26T04:18:52;14.10;99.90
22986;DHT22;11659;51.092;7.080;2022-10-26T04:21:18;14.10;99.90
22986;DHT22;11659;51.092;7.080;2022-10-26T04:23:44;14.10;99.90
22986;DHT22;11659;51.092;7.080;2022-10-26T04:26:10;14.10;99.90
22986;DHT22;11659;51.092;7.080;2022-10-26T04:28:36;14.10;99.90
22986;DHT22;11659;51.092;7.080;2022-10-26T04:31:04;14.10;99.90
22986;DHT22;11659;51.092;7.080;2022-10-26T04:33:29;14.10;99.90
22986;DHT22;11659;51.092;7.080;2022-10-26T04:35:58;14.20;99.90
22986;DHT22;11659;51.092;7.080;2022-10-26T04:38:24;14.20;99.90
22986;DHT22;11659;51.092;7.080;2022-10-26T04:40:50;14.20;99.90
22986;DHT22;11659;51.092;7.080;2022-10-26T04:43:16;14.20;99.90
22986;DHT22;11659;51.092;7.080;2022-10-26T04:45:42;14.30;99.90
22986;DHT22;11659;51.092;7.080;2022-10-26T04:48:11;14.30;99.90
22986;DHT22;11659;51.092;7.080;2022-10-26T04:50:37;14.30;99.90
22986;DHT22;11659;51.092;7.080;2022-10-26T04:53:04;14.40;99.90
22986;DHT22;11659;51.092;7.080;2022-10-26T04:55:31;14.40;99.90
22986;DHT22;11659;51.092;7.080;2022-10-26T04:57:56;14.50;99.90
22986;DHT22;11659;51.092;7.080;2022-10-26T05:00:22;14.50;99.90
22986;DHT22;11659;51.092;7.080;2022-10-26T05:02:49;14.50;99.90
22986;DHT22;11659;51.092;7.080;2022-10-26T05:05:16;14.60;99.90
22986;DHT22;11659;51.092;7.080;2022-10-26T05:07:42;14.60;99.90
22986;DHT22;11659;51.092;7.080;2022-10-26T05:10:09;14.60;99.90
22986;DHT22;11659;51.092;7.080;2022-10-26T05:12:35;14.60;99.90
22986;DHT22;11659;51.092;7.080;2022-10-26T05:15:00;14.60;99.90
22986;DHT22;11659;51.092;7.080;2022-10-26T05:17:27;14.70;99.90
22986;DHT22;11659;51.092;7.080;2022-10-26T05:19:53;14.70;99.90
22986;DHT22;11659;51.092;7.080;2022-10-26T05:22:21;14.70;99.90
22986;DHT22;11659;51.092;7.080;2022-10-26T05:24:47;14.80;99.90
22986;DHT22;11659;51.092;7.080;2022-10-26T05:27:13;14.80;99.90
22986;DHT22;11659;51.092;7.080;2022-10-26T05:29:39;14.70;99.90
22986;DHT22;11659;51.092;7.080;2022-10-26T05:32:05;14.80;99.90
22986;DHT22;11659;51.092;7.080;2022-10-26T05:34:31;14.80;99.90
22986;DHT22;11659;51.092;7.080;2022-10-26T05:36:57;14.80;99.90
22986;DHT22;11659;51.092;7.080;2022-10-26T05:39:24;14.90;99.90
22986;DHT22;11659;51.092;7.080;2022-10-26T05:41:50;14.80;99.90
22986;DHT22;11659;51.092;7.080;2022-10-26T05:44:16;14.90;99.90
22986;DHT22;11659;51.092;7.080;2022-10-26T05:46:42;14.80;99.90
22986;DHT22;11659;51.092;7.080;2022-10-26T05:49:08;14.80;99.90
22986;DHT22;11659;51.092;7.080;2022-10-26T05:51:34;14.80;99.90
22986;DHT22;11659;51.092;7.080;2022-10-26T05:54:02;14.80;99.90
22986;DHT22;11659;51.092;7.080;2022-10-26T05:56:34;14.80;99.90
22986;DHT22;11659;51.092;7.080;2022-10-26T05:59:01;14.80;99.90
22986;DHT22;11659;51.092;7.080;2022-10-26T06:01:33;14.80;99.90
22986;DHT22;11659;51.092;7.080;2022-10-26T06:04:13;14.80;99.90
22986;DHT22;11659;51.092;7.080;2022-10-26T06:06:43;14.70;99.90
22986;DHT22;11659;51.092;7.080;2022-10-26T06:09:10;14.70;99.90
22986;DHT22;11659;51.092;7.080;2022-10-26T06:11:38;14.80;99.90
22986;DHT22;11659;51.092;7.080;2022-10-26T06:14:05;14.80;99.90
22986;DHT22;11659;51.092;7.080;2022-10-26T06:16:37;14.80;99.90
22986;DHT22;11659;51.092;7.080;2022-10-26T06:19:17;14.80;99.90
22986;DHT22;11659;51.092;7.080;2022-10-26T06:21:57;14.90;99.90
22986;DHT22;11659;51.092;7.080;2022-10-26T06:24:29;14.80;99.90
22986;DHT22;11659;51.092;7.080;2022-10-26T06:27:06;14.90;99.90
22986;DHT22;11659;51.092;7.080;2022-10-26T06:29:43;14.90;99.90
22986;DHT22;11659;51.092;7.080;2022-10-26T06:32:10;14.90;99.90
22986;DHT22;11659;51.092;7.080;2022-10-26T06:34:42;15.00;99.90
22986;DHT22;11659;51.092;7.080;2022-10-26T06:37:09;15.00;99.90
22986;DHT22;11659;51.092;7.080;2022-10-26T06:39:38;15.00;99.90
22986;DHT22;11659;51.092;7.080;2022-10-26T06:42:08;15.00;99.90
22986;DHT22;11659;51.092;7.080;2022-10-26T06:44:36;15.00;99.90
22986;DHT22;11659;51.092;7.080;2022-10-26T06:47:05;15.10;99.90
22986;DHT22;11659;51.092;7.080;2022-10-26T06:49:35;15.10;99.90
22986;DHT22;11659;51.092;7.080;2022-10-26T06:52:04;15.10;99.90
22986;DHT22;11659;51.092;7.080;2022-10-26T06:54:44;15.10;99.90
22986;DHT22;11659;51.092;7.080;2022-10-26T06:57:14;15.20;99.90
22986;DHT22;11659;51.092;7.080;2022-10-26T06:59:43;15.20;99.90
22986;DHT22;11659;51.092;7.080;2022-10-26T07:02:10;15.20;99.90
22986;DHT22;11659;51.092;7.080;2022-10-26T07:04:37;15.20;99.90
22986;DHT22;11659;51.092;7.080;2022-10-26T07:07:03;15.20;99.90
22986;DHT22;11659;51.092;7.080;2022-10-26T07:09:29;15.20;99.90
22986;DHT22;11659;51.092;7.080;2022-10-26T07:11:55;15.20;99.90
22986;DHT22;11659;51.092;7.080;2022-10-26T07:14:22;15.20;99.90
22986;DHT22;11659;51.092;7.080;2022-10-26T07:16:48;15.20;99.90
22986;DHT22;11659;51.092;7.080;2022-10-26T07:19:14;15.30;99.90
22986;DHT22;11659;51.092;7.080;2022-10-26T07:21:40;15.30;99.90
22986;DHT22;11659;51.092;7.080;2022-10-26T07:24:06;15.30;99.90
22986;DHT22;11659;51.092;7.080;2022-10-26T07:26:32;15.30;99.90
22986;DHT22;11659;51.092;7.080;2022-10-26T07:28:58;15.40;99.90
22986;DHT22;11659;51.092;7.080;2022-10-26T07:31:26;15.40;99.90
22986;DHT22;11659;51.092;7.080;2022-10-26T07:33:52;15.40;99.90
22986;DHT22;11659;51.092;7.080;2022-10-26T07:36:19;15.50;99.90
22986;DHT22;11659;51.092;7.080;2022-10-26T07:38:45;15.50;99.90
22986;DHT22;11659;51.092;7.080;2022-10-26T07:41:11;15.50;99.90
22986;DHT22;11659;51.092;7.080;2022-10-26T07:43:37;15.50;99.90
22986;DHT22;11659;51.092;7.080;2022-10-26T07:46:03;15.60;99.90
22986;DHT22;11659;51.092;7.080;2022-10-26T07:48:30;15.60;99.90
22986;DHT22;11659;51.092;7.080;2022-10-26T07:50:56;15.60;99.90
22986;DHT22;11659;51.092;7.080;2022-10-26T07:53:22;15.60;99.90
22986;DHT22;11659;51.092;7.080;2022-10-26T07:55:54;15.60;99.90
22986;DHT22;11659;51.092;7.080;2022-10-26T07:58:20;15.60;99.90
22986;DHT22;11659;51.092;7.080;2022-10-26T08:00:49;15.60;99.90
22986;DHT22;11659;51.092;7.080;2022-10-26T08:03:15;15.60;99.90
22986;DHT22;11659;51.092;7.080;2022-10-26T08:05:44;15.60;99.90
22986;DHT22;11659;51.092;7.080;2022-10-26T08:08:10;15.60;99.90
22986;DHT22;11659;51.092;7.080;2022-10-26T08:10:36;15.60;99.90
22986;DHT22;11659;51.092;7.080;2022-10-26T08:13:01;15.60;99.90
22986;DHT22;11659;51.092;7.080;2022-10-26T08:15:27;15.70;99.90
22986;DHT22;11659;51.092;7.080;2022-10-26T08:17:53;15.70;99.90
22986;DHT22;11659;51.092;7.080;2022-10-26T08:20:19;15.70;99.90
22986;DHT22;11659;51.092;7.080;2022-10-26T08:22:47;15.80;99.90
22986;DHT22;11659;51.092;7.080;2022-10-26T08:25:13;15.80;99.90
22986;DHT22;11659;51.092;7.080;2022-10-26T08:27:39;15.80;99.90
22986;DHT22;11659;51.092;7.080;2022-10-26T08:30:06;15.90;99.90
22986;DHT22;11659;51.092;7.080;2022-10-26T08:32:32;15.90;99.90
22986;DHT22;11659;51.092;7.080;2022-10-26T08:34:58;16.00;99.90
22986;DHT22;11659;51.092;7.080;2022-10-26T08:37:24;16.00;99.90
22986;DHT22;11659;51.092;7.080;2022-10-26T08:39:52;16.10;99.90
22986;DHT22;11659;51.092;7.080;2022-10-26T08:42:21;16.10;99.90
22986;DHT22;11659;51.092;7.080;2022-10-26T08:44:54;16.20;99.90
22986;DHT22;11659;51.092;7.080;2022-10-26T08:47:34;16.20;99.90
22986;DHT22;11659;51.092;7.080;2022-10-26T08:50:08;16.30;99.90
22986;DHT22;11659;51.092;7.080;2022-10-26T08:52:37;16.40;99.90
22986;DHT22;11659;51.092;7.080;2022-10-26T08:55:12;16.40;99.90
22986;DHT22;11659;51.092;7.080;2022-10-26T08:57:40;16.50;99.90
22986;DHT22;11659;51.092;7.080;2022-10-26T09:00:11;16.60;99.90
22986;DHT22;11659;51.092;7.080;2022-10-26T09:02:39;16.70;99.90
22986;DHT22;11659;51.092;7.080;2022-10-26T09:05:13;16.80;99.90
22986;DHT22;11659;51.092;7.080;2022-10-26T09:07:47;16.90;99.90
22986;DHT22;11659;51.092;7.080;2022-10-26T09:10:35;16.90;99.90
22986;DHT22;11659;51.092;7.080;2022-10-26T09:13:14;16.90;99.90
22986;DHT22;11659;51.092;7.080;2022-10-26T09:15:52;16.90;99.90
22986;DHT22;11659;51.092;7.080;2022-10-26T09:18:30;16.80;99.90
22986;DHT22;11659;51.092;7.080;2022-10-26T09:21:15;16.80;99.90
22986;DHT22;11659;51.092;7.080;2022-10-26T09:24:01;16.70;99.90
22986;DHT22;11659;51.092;7.080;2022-10-26T09:26:36;16.80;99.90
22986;DHT22;11659;51.092;7.080;2022-10-26T09:29:06;16.80;99.90
22986;DHT22;11659;51.092;7.080;2022-10-26T09:31:39;16.80;99.90
22986;DHT22;11659;51.092;7.080;2022-10-26T09:34:06;16.80;99.90
22986;DHT22;11659;51.092;7.080;2022-10-26T09:36:33;16.80;99.90
22986;DHT22;11659;51.092;7.080;2022-10-26T09:39:10;16.90;99.90
22986;DHT22;11659;51.092;7.080;2022-10-26T09:41:54;16.90;99.90
22986;DHT22;11659;51.092;7.080;2022-10-26T09:44:24;17.00;99.90
22986;DHT22;11659;51.092;7.080;2022-10-26T09:46:57;17.10;99.90
22986;DHT22;11659;51.092;7.080;2022-10-26T09:49:34;17.20;99.90
22986;DHT22;11659;51.092;7.080;2022-10-26T09:52:00;17.20;99.90
22986;DHT22;11659;51.092;7.080;2022-10-26T09:54:26;17.30;99.90
22986;DHT22;11659;51.092;7.080;2022-10-26T09:56:56;17.40;99.90
22986;DHT22;11659;51.092;7.080;2022-10-26T09:59:24;17.50;99.90
22986;DHT22;11659;51.092;7.080;2022-10-26T10:01:50;17.50;99.90
22986;DHT22;11659;51.092;7.080;2022-10-26T10:04:18;17.60;99.90
22986;DHT22;11659;51.092;7.080;2022-10-26T10:06:46;17.60;99.90
22986;DHT22;11659;51.092;7.080;2022-10-26T10:09:13;17.70;99.90
22986;DHT22;11659;51.092;7.080;2022-10-26T10:11:43;17.70;99.90
22986;DHT22;11659;51.092;7.080;2022-10-26T10:14:14;17.80;99.90
22986;DHT22;11659;51.092;7.080;2022-10-26T10:16:49;17.80;99.90
22986;DHT22;11659;51.092;7.080;2022-10-26T10:19:21;17.90;99.90
22986;DHT22;11659;51.092;7.080;2022-10-26T10:21:50;17.90;99.90
22986;DHT22;11659;51.092;7.080;2022-10-26T10:24:23;17.90;99.90
22986;DHT22;11659;51.092;7.080;2022-10-26T10:26:58;18.00;99.90
22986;DHT22;11659;51.092;7.080;2022-10-26T10:29:26;18.00;99.90
22986;DHT22;11659;51.092;7.080;2022-10-26T10:31:57;18.10;99.90
22986;DHT22;11659;51.092;7.080;2022-10-26T10:34:23;18.20;99.90
22986;DHT22;11659;51.092;7.080;2022-10-26T10:36:49;18.20;99.90
22986;DHT22;11659;51.092;7.080;2022-10-26T10:39:34;18.30;99.90
22986;DHT22;11659;51.092;7.080;2022-10-26T10:42:01;18.40;99.90
22986;DHT22;11659;51.092;7.080;2022-10-26T10:44:30;18.50;99.90
22986;DHT22;11659;51.092;7.080;2022-10-26T10:47:01;18.70;99.90
22986;DHT22;11659;51.092;7.080;2022-10-26T10:49:29;18.80;99.90
22986;DHT22;11659;51.092;7.080;2022-10-26T10:51:55;18.90;99.90
22986;DHT22;11659;51.092;7.080;2022-10-26T10:54:25;19.00;99.90
22986;DHT22;11659;51.092;7.080;2022-10-26T10:56:54;19.20;99.90
22986;DHT22;11659;51.092;7.080;2022-10-26T10:59:37;19.40;99.90
22986;DHT22;11659;51.092;7.080;2022-10-26T11:05:24;19.70;99.90
22986;DHT22;11659;51.092;7.080;2022-10-26T11:08:00;19.90;99.90
22986;DHT22;11659;51.092;7.080;2022-10-26T11:10:30;20.00;99.90
22986;DHT22;11659;51.092;7.080;2022-10-26T11:12:59;20.20;99.90
22986;DHT22;11659;51.092;7.080;2022-10-26T11:15:31;20.30;99.90
22986;DHT22;11659;51.092;7.080;2022-10-26T11:18:02;20.40;99.90
22986;DHT22;11659;51.092;7.080;2022-10-26T11:20:34;20.60;99.90
22986;DHT22;11659;51.092;7.080;2022-10-26T11:23:04;20.70;99.90
22986;DHT22;11659;51.092;7.080;2022-10-26T11:25:35;20.80;99.90
22986;DHT22;11659;51.092;7.080;2022-10-26T11:28:12;21.00;99.90
22986;DHT22;11659;51.092;7.080;2022-10-26T11:30:45;21.10;99.90
22986;DHT22;11659;51.092;7.080;2022-10-26T11:33:15;21.20;99.90
22986;DHT22;11659;51.092;7.080;2022-10-26T11:35:45;21.40;99.90
22986;DHT22;11659;51.092;7.080;2022-10-26T11:38:18;21.50;99.90
22986;DHT22;11659;51.092;7.080;2022-10-26T11:40:53;21.60;99.90
22986;DHT22;11659;51.092;7.080;2022-10-26T11:43:27;21.70;99.90
22986;DHT22;11659;51.092;7.080;2022-10-26T11:46:03;21.90;99.90
22986;DHT22;11659;51.092;7.080;2022-10-26T11:48:34;22.10;99.90
22986;DHT22;11659;51.092;7.080;2022-10-26T11:51:01;22.30;99.90
22986;DHT22;11659;51.092;7.080;2022-10-26T11:53:31;22.40;99.90
22986;DHT22;11659;51.092;7.080;2022-10-26T11:55:58;22.50;99.90
22986;DHT22;11659;51.092;7.080;2022-10-26T11:58:26;22.40;99.90
22986;DHT22;11659;51.092;7.080;2022-10-26T12:00:54;22.30;99.90
22986;DHT22;11659;51.092;7.080;2022-10-26T12:03:26;22.20;99.90
22986;DHT22;11659;51.092;7.080;2022-10-26T12:05:53;22.00;99.90
22986;DHT22;11659;51.092;7.080;2022-10-26T12:08:23;21.90;99.90
22986;DHT22;11659;51.092;7.080;2022-10-26T12:10:52;21.90;99.90
22986;DHT22;11659;51.092;7.080;2022-10-26T12:13:26;22.00;99.90
22986;DHT22;11659;51.092;7.080;2022-10-26T12:15:59;22.20;99.90
22986;DHT22;11659;51.092;7.080;2022-10-26T12:18:35;22.40;99.90
22986;DHT22;11659;51.092;7.080;2022-10-26T12:21:04;22.60;99.90
22986;DHT22;11659;51.092;7.080;2022-10-26T12:23:52;22.80;99.90
22986;DHT22;11659;51.092;7.080;2022-10-26T12:26:50;23.00;99.90
22986;DHT22;11659;51.092;7.080;2022-10-26T12:29:46;23.10;99.90
22986;DHT22;11659;51.092;7.080;2022-10-26T12:32:48;23.20;99.90
22986;DHT22;11659;51.092;7.080;2022-10-26T12:35:37;23.20;99.90
22986;DHT22;11659;51.092;7.080;2022-10-26T12:38:26;23.10;99.90
22986;DHT22;11659;51.092;7.080;2022-10-26T12:41:07;22.90;99.90
22986;DHT22;11659;51.092;7.080;2022-10-26T12:43:38;22.70;99.90
22986;DHT22;11659;51.092;7.080;2022-10-26T13:05:00;21.20;99.90
22986;DHT22;11659;51.092;7.080;2022-10-26T13:07:34;21.20;99.90
22986;DHT22;11659;51.092;7.080;2022-10-26T13:10:03;21.20;99.90
22986;DHT22;11659;51.092;7.080;2022-10-26T13:12:50;21.40;99.90
22986;DHT22;11659;51.092;7.080;2022-10-26T13:15:22;21.50;99.90
22986;DHT22;11659;51.092;7.080;2022-10-26T13:17:58;21.60;99.90
22986;DHT22;11659;51.092;7.080;2022-10-26T13:20:26;21.70;99.90
22986;DHT22;11659;51.092;7.080;2022-10-26T13:22:55;21.80;99.90
22986;DHT22;11659;51.092;7.080;2022-10-26T13:25:23;21.90;99.90
22986;DHT22;11659;51.092;7.080;2022-10-26T13:27:59;22.00;99.90
22986;DHT22;11659;51.092;7.080;2022-10-26T13:30:44;22.00;99.90
22986;DHT22;11659;51.092;7.080;2022-10-26T13:33:18;22.10;99.90
22986;DHT22;11659;51.092;7.080;2022-10-26T13:35:46;22.10;99.90
22986;DHT22;11659;51.092;7.080;2022-10-26T13:38:18;22.10;99.90
22986;DHT22;11659;51.092;7.080;2022-10-26T13:40:45;22.10;99.90
22986;DHT22;11659;51.092;7.080;2022-10-26T13:43:17;22.10;99.90
22986;DHT22;11659;51.092;7.080;2022-10-26T13:45:53;22.10;99.90
22986;DHT22;11659;51.092;7.080;2022-10-26T13:48:23;22.00;99.90
22986;DHT22;11659;51.092;7.080;2022-10-26T13:50:52;22.10;99.90
22986;DHT22;11659;51.092;7.080;2022-10-26T13:53:23;22.10;99.90
22986;DHT22;11659;51.092;7.080;2022-10-26T13:55:53;22.10;99.90
22986;DHT22;11659;51.092;7.080;2022-10-26T13:58:23;22.00;99.90
22986;DHT22;11659;51.092;7.080;2022-10-26T14:01:00;22.00;99.90
22986;DHT22;11659;51.092;7.080;2022-10-26T14:03:26;22.00;99.90
22986;DHT22;11659;51.092;7.080;2022-10-26T14:05:52;21.90;99.90
22986;DHT22;11659;51.092;7.080;2022-10-26T14:08:21;21.90;99.90
22986;DHT22;11659;51.092;7.080;2022-10-26T14:10:52;21.70;99.90
22986;DHT22;11659;51.092;7.080;2022-10-26T14:13:22;21.70;99.90
22986;DHT22;11659;51.092;7.080;2022-10-26T14:15:49;21.60;99.90
22986;DHT22;11659;51.092;7.080;2022-10-26T14:18:17;21.60;99.90
22986;DHT22;11659;51.092;7.080;2022-10-26T14:20:48;21.50;99.90
22986;DHT22;11659;51.092;7.080;2022-10-26T14:23:33;21.50;99.90
22986;DHT22;11659;51.092;7.080;2022-10-26T14:25:59;20.90;99.90
22986;DHT22;11659;51.092;7.080;2022-10-26T14:28:30;21.50;99.90
22986;DHT22;11659;51.092;7.080;2022-10-26T14:31:10;21.40;99.90
22986;DHT22;11659;51.092;7.080;2022-10-26T14:33:37;21.40;99.90
22986;DHT22;11659;51.092;7.080;2022-10-26T14:36:03;21.30;99.90
22986;DHT22;11659;51.092;7.080;2022-10-26T14:38:37;21.30;99.90
22986;DHT22;11659;51.092;7.080;2022-10-26T14:41:06;21.20;99.90
22986;DHT22;11659;51.092;7.080;2022-10-26T14:43:33;21.10;99.90
22986;DHT22;11659;51.092;7.080;2022-10-26T14:45:59;21.10;99.90
22986;DHT22;11659;51.092;7.080;2022-10-26T14:49:01;21.00;99.90
22986;DHT22;11659;51.092;7.080;2022-10-26T14:51:29;20.90;99.90
22986;DHT22;11659;51.092;7.080;2022-10-26T14:53:57;20.80;99.90
22986;DHT22;11659;51.092;7.080;2022-10-26T14:56:27;20.80;99.90
22986;DHT22;11659;51.092;7.080;2022-10-26T14:58:55;20.70;99.90
22986;DHT22;11659;51.092;7.080;2022-10-26T15:01:30;20.80;99.90
22986;DHT22;11659;51.092;7.080;2022-10-26T15:03:58;20.60;99.90
22986;DHT22;11659;51.092;7.080;2022-10-26T15:06:41;20.60;99.90
22986;DHT22;11659;51.092;7.080;2022-10-26T15:09:37;20.60;99.90
22986;DHT22;11659;51.092;7.080;2022-10-26T15:12:04;20.50;99.90
22986;DHT22;11659;51.092;7.080;2022-10-26T15:14:30;20.50;99.90
22986;DHT22;11659;51.092;7.080;2022-10-26T15:16:58;20.40;99.90
22986;DHT22;11659;51.092;7.080;2022-10-26T15:19:25;20.40;99.90
22986;DHT22;11659;51.092;7.080;2022-10-26T15:21:52;20.30;99.90
22986;DHT22;11659;51.092;7.080;2022-10-26T15:24:38;20.30;99.90
22986;DHT22;11659;51.092;7.080;2022-10-26T15:27:11;20.20;99.90
22986;DHT22;11659;51.092;7.080;2022-10-26T15:29:40;20.40;99.90
22986;DHT22;11659;51.092;7.080;2022-10-26T15:32:26;20.10;99.90
22986;DHT22;11659;51.092;7.080;2022-10-26T15:35:21;20.00;99.90
22986;DHT22;11659;51.092;7.080;2022-10-26T15:37:48;19.90;99.90
22986;DHT22;11659;51.092;7.080;2022-10-26T15:40:16;19.80;99.90
22986;DHT22;11659;51.092;7.080;2022-10-26T15:42:42;19.70;99.90
22986;DHT22;11659;51.092;7.080;2022-10-26T15:45:16;19.60;99.90
22986;DHT22;11659;51.092;7.080;2022-10-26T15:47:42;19.60;99.90
22986;DHT22;11659;51.092;7.080;2022-10-26T15:50:12;19.60;99.90
22986;DHT22;11659;51.092;7.080;2022-10-26T15:52:38;19.60;99.90
22986;DHT22;11659;51.092;7.080;2022-10-26T15:55:04;19.50;99.90
22986;DHT22;11659;51.092;7.080;2022-10-26T15:57:32;19.50;99.90
22986;DHT22;11659;51.092;7.080;2022-10-26T15:59:58;19.60;99.90
22986;DHT22;11659;51.092;7.080;2022-10-26T16:02:24;19.40;99.90
22986;DHT22;11659;51.092;7.080;2022-10-26T16:04:49;19.30;99.90
22986;DHT22;11659;51.092;7.080;2022-10-26T16:07:15;19.30;99.90
22986;DHT22;11659;51.092;7.080;2022-10-26T16:09:42;19.30;99.90
22986;DHT22;11659;51.092;7.080;2022-10-26T16:12:09;19.20;99.90
22986;DHT22;11659;51.092;7.080;2022-10-26T16:14:37;19.20;99.90
22986;DHT22;11659;51.092;7.080;2022-10-26T16:17:04;19.10;99.90